sensor_id;sensor_type;location;lat;lon;timestamp;pressure;altitude;pressure_sealevel;temperature;humidity
72359;BME280;60317;48.880;-0.862;2023-04-07T00:00:25;100668.84;;;20.90;39.55
72359;BME280;60317;48.880;-0.862;2023-04-07T00:02:52;100669.44;;;20.94;39.46
72359;BME280;60317;48.880;-0.862;2023-04-07T00:05:20;100671.03;;;20.96;39.37
72359;BME280;60317;48.880;-0.862;2023-04-07T00:07:47;100674.28;;;21.00;39.22
72359;BME280;60317;48.880;-0.862;2023-04-07T00:10:22;100683.19;;;21.01;39.13
72359;BME280;60317;48.880;-0.862;2023-04-07T00:12:49;100677.69;;;21.02;39.22
72359;BME280;60317;48.880;-0.862;2023-04-07T00:15:15;100673.88;;;21.05;39.01
72359;BME280;60317;48.880;-0.862;2023-04-07T00:17:42;100665.19;;;20.91;39.28
72359;BME280;60317;48.880;-0.862;2023-04-07T00:20:09;100675.59;;;20.85;39.40
72359;BME280;60317;48.880;-0.862;2023-04-07T00:22:37;100671.28;;;20.93;39.06
72359;BME280;60317;48.880;-0.862;2023-04-07T00:25:04;100669.31;;;20.95;39.06
72359;BME280;60317;48.880;-0.862;2023-04-07T00:27:30;100666.50;;;20.97;38.92
72359;BME280;60317;48.880;-0.862;2023-04-07T00:29:57;100668.06;;;21.00;38.81
72359;BME280;60317;48.880;-0.862;2023-04-07T00:32:23;100673.31;;;21.01;38.76
72359;BME280;60317;48.880;-0.862;2023-04-07T00:34:50;100676.84;;;21.02;38.60
72359;BME280;60317;48.880;-0.862;2023-04-07T00:37:16;100662.50;;;20.91;39.01
72359;BME280;60317;48.880;-0.862;2023-04-07T00:39:44;100672.31;;;20.81;39.14
72359;BME280;60317;48.880;-0.862;2023-04-07T00:42:11;100671.53;;;20.90;38.82
72359;BME280;60317;48.880;-0.862;2023-04-07T00:44:37;100675.66;;;20.94;38.80
72359;BME280;60317;48.880;-0.862;2023-04-07T00:47:04;100669.19;;;20.97;38.69
72359;BME280;60317;48.880;-0.862;2023-04-07T00:49:30;100662.81;;;20.98;38.73
72359;BME280;60317;48.880;-0.862;2023-04-07T00:51:57;100654.63;;;21.00;38.69
72359;BME280;60317;48.880;-0.862;2023-04-07T00:54:24;100656.34;;;21.01;38.57
72359;BME280;60317;48.880;-0.862;2023-04-07T00:56:52;100649.53;;;20.96;38.67
72359;BME280;60317;48.880;-0.862;2023-04-07T00:59:19;100659.88;;;20.80;39.00
72359;BME280;60317;48.880;-0.862;2023-04-07T01:01:53;100662.16;;;20.85;38.58
72359;BME280;60317;48.880;-0.862;2023-04-07T01:04:25;100660.53;;;20.93;38.60
72359;BME280;60317;48.880;-0.862;2023-04-07T01:06:56;100655.75;;;20.97;38.59
72359;BME280;60317;48.880;-0.862;2023-04-07T01:09:27;100663.66;;;20.98;38.52
72359;BME280;60317;48.880;-0.862;2023-04-07T01:12:04;100661.13;;;20.97;38.63
72359;BME280;60317;48.880;-0.862;2023-04-07T01:14:34;100651.22;;;20.97;38.72
72359;BME280;60317;48.880;-0.862;2023-04-07T01:17:05;100657.31;;;21.00;38.56
72359;BME280;60317;48.880;-0.862;2023-04-07T01:19:36;100649.88;;;20.82;38.78
72359;BME280;60317;48.880;-0.862;2023-04-07T01:22:06;100664.84;;;20.85;38.63
72359;BME280;60317;48.880;-0.862;2023-04-07T01:24:45;100657.84;;;20.93;38.68
72359;BME280;60317;48.880;-0.862;2023-04-07T01:27:33;100659.44;;;20.96;38.63
72359;BME280;60317;48.880;-0.862;2023-04-07T01:30:03;100649.53;;;20.96;38.45
72359;BME280;60317;48.880;-0.862;2023-04-07T01:32:34;100663.66;;;20.98;38.33
72359;BME280;60317;48.880;-0.862;2023-04-07T01:35:03;100660.28;;;20.96;38.38
72359;BME280;60317;48.880;-0.862;2023-04-07T01:37:31;100662.22;;;20.94;38.33
72359;BME280;60317;48.880;-0.862;2023-04-07T01:39:58;100661.84;;;20.78;38.62
72359;BME280;60317;48.880;-0.862;2023-04-07T01:42:25;100666.09;;;20.81;38.53
72359;BME280;60317;48.880;-0.862;2023-04-07T01:44:52;100668.00;;;20.90;38.35
72359;BME280;60317;48.880;-0.862;2023-04-07T01:47:21;100675.66;;;20.94;38.38
72359;BME280;60317;48.880;-0.862;2023-04-07T01:49:48;100675.66;;;20.94;38.45
72359;BME280;60317;48.880;-0.862;2023-04-07T01:52:16;100669.19;;;20.97;38.30
72359;BME280;60317;48.880;-0.862;2023-04-07T01:54:43;100671.03;;;20.96;38.40
72359;BME280;60317;48.880;-0.862;2023-04-07T01:57:10;100671.47;;;21.02;38.16
72359;BME280;60317;48.880;-0.862;2023-04-07T01:59:37;100671.81;;;20.87;38.35
72359;BME280;60317;48.880;-0.862;2023-04-07T02:02:03;100673.31;;;20.80;38.47
72359;BME280;60317;48.880;-0.862;2023-04-07T02:04:35;100668.00;;;20.90;38.30
72359;BME280;60317;48.880;-0.862;2023-04-07T02:07:07;100665.38;;;21.00;37.99
72359;BME280;60317;48.880;-0.862;2023-04-07T02:09:37;100665.25;;;21.01;38.11
72359;BME280;60317;48.880;-0.862;2023-04-07T02:12:06;100667.81;;;21.03;38.17
72359;BME280;60317;48.880;-0.862;2023-04-07T02:14:34;100669.63;;;21.02;38.21
72359;BME280;60317;48.880;-0.862;2023-04-07T02:17:03;100671.09;;;21.06;38.14
72359;BME280;60317;48.880;-0.862;2023-04-07T02:19:31;100669.91;;;20.99;38.36
72359;BME280;60317;48.880;-0.862;2023-04-07T02:21:58;100669.00;;;20.89;38.34
72359;BME280;60317;48.880;-0.862;2023-04-07T02:24:25;100666.91;;;20.92;38.19
72359;BME280;60317;48.880;-0.862;2023-04-07T02:26:52;100663.81;;;20.97;38.15
72359;BME280;60317;48.880;-0.862;2023-04-07T02:29:18;100667.09;;;21.01;38.03
72359;BME280;60317;48.880;-0.862;2023-04-07T02:31:45;100671.19;;;21.05;38.07
72359;BME280;60317;48.880;-0.862;2023-04-07T02:34:11;100665.56;;;21.08;37.81
72359;BME280;60317;48.880;-0.862;2023-04-07T02:36:39;100667.16;;;21.10;37.81
72359;BME280;60317;48.880;-0.862;2023-04-07T02:39:06;100666.88;;;21.13;37.79
72359;BME280;60317;48.880;-0.862;2023-04-07T02:41:32;100664.25;;;21.02;38.01
72359;BME280;60317;48.880;-0.862;2023-04-07T02:43:59;100672.97;;;20.94;38.13
72359;BME280;60317;48.880;-0.862;2023-04-07T02:46:25;100670.50;;;21.03;37.86
72359;BME280;60317;48.880;-0.862;2023-04-07T02:48:52;100671.69;;;21.10;37.73
72359;BME280;60317;48.880;-0.862;2023-04-07T02:51:18;100673.22;;;21.12;37.79
72359;BME280;60317;48.880;-0.862;2023-04-07T02:53:46;100664.91;;;21.15;37.65
72359;BME280;60317;48.880;-0.862;2023-04-07T02:56:14;100664.78;;;21.17;37.59
72359;BME280;60317;48.880;-0.862;2023-04-07T02:58:40;100670.75;;;21.20;37.69
72359;BME280;60317;48.880;-0.862;2023-04-07T03:01:07;100674.00;;;21.24;37.60
72359;BME280;60317;48.880;-0.862;2023-04-07T03:03:33;100668.25;;;21.08;37.81
72359;BME280;60317;48.880;-0.862;2023-04-07T03:06:00;100673.19;;;21.03;37.92
72359;BME280;60317;48.880;-0.862;2023-04-07T03:08:26;100660.63;;;21.13;37.67
72359;BME280;60317;48.880;-0.862;2023-04-07T03:10:54;100662.94;;;21.17;37.72
72359;BME280;60317;48.880;-0.862;2023-04-07T03:13:21;100670.16;;;21.17;37.65
72359;BME280;60317;48.880;-0.862;2023-04-07T03:15:48;100670.59;;;21.22;37.61
72359;BME280;60317;48.880;-0.862;2023-04-07T03:18:14;100674.00;;;21.24;37.65
72359;BME280;60317;48.880;-0.862;2023-04-07T03:20:41;100676.44;;;21.27;37.58
72359;BME280;60317;48.880;-0.862;2023-04-07T03:23:07;100669.34;;;21.26;37.53
72359;BME280;60317;48.880;-0.862;2023-04-07T03:25:34;100668.84;;;21.11;37.78
72359;BME280;60317;48.880;-0.862;2023-04-07T03:28:01;100673.38;;;21.11;37.72
72359;BME280;60317;48.880;-0.862;2023-04-07T03:30:28;100676.97;;;21.21;37.35
72359;BME280;60317;48.880;-0.862;2023-04-07T03:32:54;100671.91;;;21.28;37.23
72359;BME280;60317;48.880;-0.862;2023-04-07T03:35:21;100676.16;;;21.30;37.31
72359;BME280;60317;48.880;-0.862;2023-04-07T03:37:47;100674.19;;;21.32;37.38
72359;BME280;60317;48.880;-0.862;2023-04-07T03:40:14;100670.66;;;21.32;37.42
72359;BME280;60317;48.880;-0.862;2023-04-07T03:42:41;100674.94;;;21.34;37.44
72359;BME280;60317;48.880;-0.862;2023-04-07T03:45:10;100666.66;;;21.26;37.52
72359;BME280;60317;48.880;-0.862;2023-04-07T03:47:36;100674.81;;;21.15;37.69
72359;BME280;60317;48.880;-0.862;2023-04-07T03:50:03;100666.31;;;21.19;37.38
72359;BME280;60317;48.880;-0.862;2023-04-07T03:52:30;100670.34;;;21.25;37.32
72359;BME280;60317;48.880;-0.862;2023-04-07T03:54:57;100674.44;;;21.29;37.20
72359;BME280;60317;48.880;-0.862;2023-04-07T03:57:23;100671.50;;;21.32;37.33
72359;BME280;60317;48.880;-0.862;2023-04-07T03:59:50;100679.44;;;21.34;37.16
72359;BME280;60317;48.880;-0.862;2023-04-07T04:02:18;100684.44;;;21.38;37.23
72359;BME280;60317;48.880;-0.862;2023-04-07T04:04:44;100679.19;;;21.37;37.27
72359;BME280;60317;48.880;-0.862;2023-04-07T04:07:11;100681.34;;;21.22;37.54
72359;BME280;60317;48.880;-0.862;2023-04-07T04:09:37;100678.81;;;21.20;37.42
72359;BME280;60317;48.880;-0.862;2023-04-07T04:12:04;100679.13;;;21.27;37.28
72359;BME280;60317;48.880;-0.862;2023-04-07T04:14:30;100684.22;;;21.30;37.26
72359;BME280;60317;48.880;-0.862;2023-04-07T04:16:57;100685.94;;;21.31;37.21
72359;BME280;60317;48.880;-0.862;2023-04-07T04:19:25;100685.56;;;21.36;37.13
72359;BME280;60317;48.880;-0.862;2023-04-07T04:21:51;100680.03;;;21.37;37.20
72359;BME280;60317;48.880;-0.862;2023-04-07T04:24:18;100678.91;;;21.40;37.09
72359;BME280;60317;48.880;-0.862;2023-04-07T04:26:44;100678.34;;;21.36;37.18
72359;BME280;60317;48.880;-0.862;2023-04-07T04:29:11;100677.97;;;21.20;37.46
72359;BME280;60317;48.880;-0.862;2023-04-07T04:31:37;100675.97;;;21.22;37.41
72359;BME280;60317;48.880;-0.862;2023-04-07T04:34:04;100686.06;;;21.30;37.20
72359;BME280;60317;48.880;-0.862;2023-04-07T04:36:32;100681.25;;;21.33;37.10
72359;BME280;60317;48.880;-0.862;2023-04-07T04:38:58;100680.91;;;21.38;37.14
72359;BME280;60317;48.880;-0.862;2023-04-07T04:41:25;100679.91;;;21.39;37.08
72359;BME280;60317;48.880;-0.862;2023-04-07T04:43:51;100680.75;;;21.39;36.96
72359;BME280;60317;48.880;-0.862;2023-04-07T04:46:17;100678.91;;;21.40;36.99
72359;BME280;60317;48.880;-0.862;2023-04-07T04:48:44;100679.19;;;21.37;37.27
72359;BME280;60317;48.880;-0.862;2023-04-07T04:51:10;100681.94;;;21.26;37.38
72359;BME280;60317;48.880;-0.862;2023-04-07T04:53:38;100680.09;;;21.26;37.22
72359;BME280;60317;48.880;-0.862;2023-04-07T04:56:05;100681.53;;;21.30;37.06
72359;BME280;60317;48.880;-0.862;2023-04-07T04:58:33;100675.66;;;21.36;37.08
72359;BME280;60317;48.880;-0.862;2023-04-07T05:01:00;100680.63;;;21.41;36.99
72359;BME280;60317;48.880;-0.862;2023-04-07T05:03:27;100688.56;;;21.42;36.83
72359;BME280;60317;48.880;-0.862;2023-04-07T05:05:54;100682.34;;;21.42;36.87
72359;BME280;60317;48.880;-0.862;2023-04-07T05:08:20;100683.88;;;21.44;36.88
72359;BME280;60317;48.880;-0.862;2023-04-07T05:10:48;100677.81;;;21.42;36.98
72359;BME280;60317;48.880;-0.862;2023-04-07T05:13:14;100686.78;;;21.32;37.21
72359;BME280;60317;48.880;-0.862;2023-04-07T05:15:41;100690.00;;;21.26;37.20
72359;BME280;60317;48.880;-0.862;2023-04-07T05:18:07;100682.25;;;21.32;36.93
72359;BME280;60317;48.880;-0.862;2023-04-07T05:20:34;100678.47;;;21.35;36.76
72359;BME280;60317;48.880;-0.862;2023-04-07T05:23:00;100674.66;;;21.37;36.90
72359;BME280;60317;48.880;-0.862;2023-04-07T05:25:27;100680.19;;;21.36;36.85
72359;BME280;60317;48.880;-0.862;2023-04-07T05:27:56;100685.16;;;20.98;36.81
72359;BME280;60317;48.880;-0.862;2023-04-07T05:30:22;100689.91;;;20.85;36.99
72359;BME280;60317;48.880;-0.862;2023-04-07T05:32:49;100690.22;;;20.92;37.19
72359;BME280;60317;48.880;-0.862;2023-04-07T05:35:16;100684.78;;;21.03;36.98
72359;BME280;60317;48.880;-0.862;2023-04-07T05:37:42;100682.72;;;21.16;36.86
72359;BME280;60317;48.880;-0.862;2023-04-07T05:40:09;100685.63;;;21.25;36.48
72359;BME280;60317;48.880;-0.862;2023-04-07T05:42:36;100687.91;;;21.29;36.63
72359;BME280;60317;48.880;-0.862;2023-04-07T05:45:04;100693.00;;;21.32;36.48
72359;BME280;60317;48.880;-0.862;2023-04-07T05:47:31;100695.31;;;21.37;36.40
72359;BME280;60317;48.880;-0.862;2023-04-07T05:49:57;100696.16;;;21.37;36.43
72359;BME280;60317;48.880;-0.862;2023-04-07T05:52:24;100695.25;;;21.27;36.53
72359;BME280;60317;48.880;-0.862;2023-04-07T05:54:50;100707.53;;;21.20;36.63
72359;BME280;60317;48.880;-0.862;2023-04-07T05:57:17;100700.63;;;21.27;36.61
72359;BME280;60317;48.880;-0.862;2023-04-07T05:59:43;100704.59;;;21.33;36.54
72359;BME280;60317;48.880;-0.862;2023-04-07T06:02:12;100704.53;;;21.34;36.64
72359;BME280;60317;48.880;-0.862;2023-04-07T06:04:39;100706.91;;;21.37;36.45
72359;BME280;60317;48.880;-0.862;2023-04-07T06:07:05;100702.28;;;21.39;36.52
72359;BME280;60317;48.880;-0.862;2023-04-07T06:09:32;100709.22;;;21.42;36.47
72359;BME280;60317;48.880;-0.862;2023-04-07T06:11:58;100713.88;;;21.40;36.59
72359;BME280;60317;48.880;-0.862;2023-04-07T06:14:25;100715.88;;;21.27;36.62
72359;BME280;60317;48.880;-0.862;2023-04-07T06:16:51;100724.69;;;21.29;36.68
72359;BME280;60317;48.880;-0.862;2023-04-07T06:19:19;100717.66;;;21.37;36.72
72359;BME280;60317;48.880;-0.862;2023-04-07T06:21:46;100732.69;;;21.40;36.52
72359;BME280;60317;48.880;-0.862;2023-04-07T06:24:12;100725.38;;;21.42;36.70
72359;BME280;60317;48.880;-0.862;2023-04-07T06:26:39;100723.63;;;21.41;36.69
72359;BME280;60317;48.880;-0.862;2023-04-07T06:29:06;100726.78;;;21.46;36.65
72359;BME280;60317;48.880;-0.862;2023-04-07T06:31:32;100728.50;;;21.47;36.74
72359;BME280;60317;48.880;-0.862;2023-04-07T06:33:59;100735.91;;;21.34;36.77
72359;BME280;60317;48.880;-0.862;2023-04-07T06:36:27;100734.44;;;21.30;36.78
72359;BME280;60317;48.880;-0.862;2023-04-07T06:38:54;100742.59;;;21.39;36.64
72359;BME280;60317;48.880;-0.862;2023-04-07T06:41:20;100745.88;;;21.43;36.70
72359;BME280;60317;48.880;-0.862;2023-04-07T06:43:48;100743.78;;;21.47;36.66
72359;BME280;60317;48.880;-0.862;2023-04-07T06:46:15;100749.88;;;21.49;36.66
72359;BME280;60317;48.880;-0.862;2023-04-07T06:48:42;100757.94;;;21.49;36.78
72359;BME280;60317;48.880;-0.862;2023-04-07T06:51:08;100762.19;;;21.51;36.75
72359;BME280;60317;48.880;-0.862;2023-04-07T06:53:36;100764.69;;;21.43;36.69
72359;BME280;60317;48.880;-0.862;2023-04-07T06:56:05;100762.91;;;21.32;36.91
72359;BME280;60317;48.880;-0.862;2023-04-07T06:58:32;100763.38;;;21.37;36.83
72359;BME280;60317;48.880;-0.862;2023-04-07T07:00:59;100765.69;;;21.42;36.95
72359;BME280;60317;48.880;-0.862;2023-04-07T07:03:25;100760.16;;;21.43;36.89
72359;BME280;60317;48.880;-0.862;2023-04-07T07:05:53;100771.41;;;21.49;36.76
72359;BME280;60317;48.880;-0.862;2023-04-07T07:08:19;100772.69;;;21.54;36.78
72359;BME280;60317;48.880;-0.862;2023-04-07T07:10:47;100778.53;;;21.59;36.91
72359;BME280;60317;48.880;-0.862;2023-04-07T07:13:14;100775.53;;;21.53;36.97
72359;BME280;60317;48.880;-0.862;2023-04-07T07:15:41;100771.91;;;21.42;37.26
72359;BME280;60317;48.880;-0.862;2023-04-07T07:18:07;100783.84;;;21.50;37.23
72359;BME280;60317;48.880;-0.862;2023-04-07T07:20:34;100777.28;;;21.42;38.19
72359;BME280;60317;48.880;-0.862;2023-04-07T07:23:00;100782.84;;;21.30;39.03
72359;BME280;60317;48.880;-0.862;2023-04-07T07:25:27;100782.06;;;21.18;39.61
72359;BME280;60317;48.880;-0.862;2023-04-07T07:27:55;100781.97;;;21.08;39.77
72359;BME280;60317;48.880;-0.862;2023-04-07T07:30:22;100791.28;;;21.04;40.07
72359;BME280;60317;48.880;-0.862;2023-04-07T07:32:49;100790.09;;;20.97;40.06
72359;BME280;60317;48.880;-0.862;2023-04-07T07:35:16;100795.38;;;20.87;40.06
72359;BME280;60317;48.880;-0.862;2023-04-07T07:37:43;100790.50;;;20.81;39.66
72359;BME280;60317;48.880;-0.862;2023-04-07T07:40:10;100791.41;;;20.82;39.57
72359;BME280;60317;48.880;-0.862;2023-04-07T07:42:36;100795.03;;;20.81;39.80
72359;BME280;60317;48.880;-0.862;2023-04-07T07:45:05;100789.06;;;20.77;39.72
72359;BME280;60317;48.880;-0.862;2023-04-07T07:47:32;100789.91;;;20.78;39.81
72359;BME280;60317;48.880;-0.862;2023-04-07T07:49:58;100785.19;;;20.70;40.03
72359;BME280;60317;48.880;-0.862;2023-04-07T07:52:25;100783.25;;;20.72;40.04
72359;BME280;60317;48.880;-0.862;2023-04-07T07:54:51;100788.38;;;20.75;39.86
72359;BME280;60317;48.880;-0.862;2023-04-07T07:57:18;100788.63;;;20.72;40.12
72359;BME280;60317;48.880;-0.862;2023-04-07T07:59:44;100786.91;;;20.71;40.27
72359;BME280;60317;48.880;-0.862;2023-04-07T08:02:12;100787.75;;;20.71;40.19
72359;BME280;60317;48.880;-0.862;2023-04-07T08:04:39;100797.66;;;20.71;40.09
72359;BME280;60317;48.880;-0.862;2023-04-07T08:07:05;100795.47;;;20.65;40.31
72359;BME280;60317;48.880;-0.862;2023-04-07T08:09:32;100795.47;;;20.65;40.22
72359;BME280;60317;48.880;-0.862;2023-04-07T08:11:59;100795.47;;;20.65;40.43
72359;BME280;60317;48.880;-0.862;2023-04-07T08:14:25;100784.72;;;20.65;40.36
72359;BME280;60317;48.880;-0.862;2023-04-07T08:16:52;100795.97;;;20.59;40.54
72359;BME280;60317;48.880;-0.862;2023-04-07T08:19:20;100803.88;;;20.71;40.95
72359;BME280;60317;48.880;-0.862;2023-04-07T08:21:48;100808.91;;;20.65;41.22
72359;BME280;60317;48.880;-0.862;2023-04-07T08:24:15;100804.47;;;20.64;41.37
72359;BME280;60317;48.880;-0.862;2023-04-07T08:26:43;100801.91;;;20.73;41.15
72359;BME280;60317;48.880;-0.862;2023-04-07T08:29:11;100801.91;;;20.73;41.28
72359;BME280;60317;48.880;-0.862;2023-04-07T08:31:38;100803.03;;;20.60;41.48
72359;BME280;60317;48.880;-0.862;2023-04-07T08:34:04;100803.03;;;20.48;41.46
72359;BME280;60317;48.880;-0.862;2023-04-07T08:36:32;100800.00;;;20.42;41.49
72359;BME280;60317;48.880;-0.862;2023-04-07T08:38:59;100807.81;;;20.56;41.45
72359;BME280;60317;48.880;-0.862;2023-04-07T08:41:29;100802.44;;;20.67;41.22
72359;BME280;60317;48.880;-0.862;2023-04-07T08:44:00;100802.78;;;20.63;41.62
72359;BME280;60317;48.880;-0.862;2023-04-07T08:46:27;100802.09;;;20.61;41.84
72359;BME280;60317;48.880;-0.862;2023-04-07T08:48:55;100790.94;;;20.65;41.52
72359;BME280;60317;48.880;-0.862;2023-04-07T08:51:37;100791.34;;;20.61;41.36
72359;BME280;60317;48.880;-0.862;2023-04-07T08:54:09;100791.94;;;20.64;41.45
72359;BME280;60317;48.880;-0.862;2023-04-07T08:56:36;100783.94;;;20.85;41.18
72359;BME280;60317;48.880;-0.862;2023-04-07T08:59:05;100784.59;;;20.98;40.88
72359;BME280;60317;48.880;-0.862;2023-04-07T09:01:33;100787.84;;;21.13;40.41
72359;BME280;60317;48.880;-0.862;2023-04-07T09:04:01;100784.22;;;21.24;40.38
72359;BME280;60317;48.880;-0.862;2023-04-07T09:06:29;100785.25;;;21.33;40.25
72359;BME280;60317;48.880;-0.862;2023-04-07T09:08:57;100782.53;;;21.44;40.24
72359;BME280;60317;48.880;-0.862;2023-04-07T09:11:25;100783.84;;;21.50;40.09
72359;BME280;60317;48.880;-0.862;2023-04-07T09:13:51;100776.81;;;21.37;40.23
72359;BME280;60317;48.880;-0.862;2023-04-07T09:16:18;100781.00;;;21.30;40.58
72359;BME280;60317;48.880;-0.862;2023-04-07T09:18:46;100787.28;;;21.52;40.26
72359;BME280;60317;48.880;-0.862;2023-04-07T09:21:12;100787.19;;;21.63;40.19
72359;BME280;60317;48.880;-0.862;2023-04-07T09:23:41;100797.09;;;21.62;40.27
72359;BME280;60317;48.880;-0.862;2023-04-07T09:26:20;100787.53;;;21.79;40.32
72359;BME280;60317;48.880;-0.862;2023-04-07T09:28:51;100785.00;;;21.78;40.25
72359;BME280;60317;48.880;-0.862;2023-04-07T09:31:18;100790.16;;;21.90;40.38
72359;BME280;60317;48.880;-0.862;2023-04-07T09:33:44;100797.00;;;21.74;40.61
72359;BME280;60317;48.880;-0.862;2023-04-07T09:36:11;100793.34;;;21.54;41.16
72359;BME280;60317;48.880;-0.862;2023-04-07T09:38:39;100791.41;;;21.56;40.83
72359;BME280;60317;48.880;-0.862;2023-04-07T09:41:08;100784.66;;;21.71;40.56
72359;BME280;60317;48.880;-0.862;2023-04-07T09:43:37;100787.53;;;21.79;40.46
72359;BME280;60317;48.880;-0.862;2023-04-07T09:46:08;100788.69;;;21.86;40.33
72359;BME280;60317;48.880;-0.862;2023-04-07T09:48:36;100795.97;;;21.96;40.18
72359;BME280;60317;48.880;-0.862;2023-04-07T09:51:05;100791.31;;;21.98;40.15
72359;BME280;60317;48.880;-0.862;2023-04-07T09:53:41;100795.69;;;21.99;40.12
72359;BME280;60317;48.880;-0.862;2023-04-07T09:56:08;100795.03;;;22.06;39.93
72359;BME280;60317;48.880;-0.862;2023-04-07T09:58:38;100802.09;;;22.07;39.92
72359;BME280;60317;48.880;-0.862;2023-04-07T10:01:06;100800.41;;;22.06;39.96
72359;BME280;60317;48.880;-0.862;2023-04-07T10:03:33;100798.50;;;21.87;40.75
72359;BME280;60317;48.880;-0.862;2023-04-07T10:06:00;100799.44;;;21.77;40.79
72359;BME280;60317;48.880;-0.862;2023-04-07T10:08:26;100783.03;;;21.80;40.64
72359;BME280;60317;48.880;-0.862;2023-04-07T10:10:53;100790.16;;;21.90;40.06
72359;BME280;60317;48.880;-0.862;2023-04-07T10:13:21;100788.78;;;22.06;39.75
72359;BME280;60317;48.880;-0.862;2023-04-07T10:15:49;100797.59;;;22.08;39.49
72359;BME280;60317;48.880;-0.862;2023-04-07T10:18:16;100794.47;;;22.12;39.42
72359;BME280;60317;48.880;-0.862;2023-04-07T10:20:44;100795.78;;;22.18;39.41
72359;BME280;60317;48.880;-0.862;2023-04-07T10:23:15;100795.41;;;22.23;39.03
72359;BME280;60317;48.880;-0.862;2023-04-07T10:25:44;100786.31;;;22.24;39.26
72359;BME280;60317;48.880;-0.862;2023-04-07T10:28:12;100783.63;;;22.24;39.36
72359;BME280;60317;48.880;-0.862;2023-04-07T10:30:40;100783.31;;;21.86;39.84
72359;BME280;60317;48.880;-0.862;2023-04-07T10:33:08;100785.88;;;21.57;40.45
72359;BME280;60317;48.880;-0.862;2023-04-07T10:38:26;100779.66;;;21.87;39.57
72359;BME280;60317;48.880;-0.862;2023-04-07T10:40:52;100783.91;;;21.90;39.36
72359;BME280;60317;48.880;-0.862;2023-04-07T10:43:36;100789.28;;;21.90;39.25
72359;BME280;60317;48.880;-0.862;2023-04-07T10:46:03;100784.47;;;21.93;39.10
72359;BME280;60317;48.880;-0.862;2023-04-07T10:48:31;100782.13;;;21.70;39.08
72359;BME280;60317;48.880;-0.862;2023-04-07T10:51:11;100782.53;;;21.44;38.36
72359;BME280;60317;48.880;-0.862;2023-04-07T10:59:27;100783.94;;;21.38;38.28
72359;BME280;60317;48.880;-0.862;2023-04-07T11:02:29;100783.53;;;21.43;38.12
72359;BME280;60317;48.880;-0.862;2023-04-07T11:04:56;100777.34;;;21.52;37.95
72359;BME280;60317;48.880;-0.862;2023-04-07T11:07:43;100789.78;;;21.74;37.75
72359;BME280;60317;48.880;-0.862;2023-04-07T11:10:11;100794.00;;;21.67;37.94
72359;BME280;60317;48.880;-0.862;2023-04-07T11:12:38;100790.22;;;21.49;38.46
72359;BME280;60317;48.880;-0.862;2023-04-07T11:15:18;100785.78;;;21.68;38.21
72359;BME280;60317;48.880;-0.862;2023-04-07T11:17:45;100780.03;;;21.83;38.00
72359;BME280;60317;48.880;-0.862;2023-04-07T11:20:11;100784.78;;;22.00;37.91
72359;BME280;60317;48.880;-0.862;2023-04-07T11:22:38;100787.22;;;21.73;37.73
72359;BME280;60317;48.880;-0.862;2023-04-07T11:25:19;100777.13;;;21.65;38.02
72359;BME280;60317;48.880;-0.862;2023-04-07T11:27:46;100785.78;;;21.68;37.84
72359;BME280;60317;48.880;-0.862;2023-04-07T11:30:13;100783.81;;;21.71;37.87
72359;BME280;60317;48.880;-0.862;2023-04-07T11:32:46;100776.94;;;21.57;38.06
72359;BME280;60317;48.880;-0.862;2023-04-07T11:35:13;100781.72;;;21.32;38.39
72359;BME280;60317;48.880;-0.862;2023-04-07T11:37:39;100783.66;;;21.41;38.25
72359;BME280;60317;48.880;-0.862;2023-04-07T11:40:07;100786.28;;;21.53;37.79
72359;BME280;60317;48.880;-0.862;2023-04-07T11:42:34;100786.59;;;21.59;37.64
72359;BME280;60317;48.880;-0.862;2023-04-07T11:45:01;100782.06;;;21.60;37.70
72359;BME280;60317;48.880;-0.862;2023-04-07T11:47:36;100787.44;;;21.60;37.64
72359;BME280;60317;48.880;-0.862;2023-04-07T11:50:05;100783.19;;;21.57;37.53
72359;BME280;60317;48.880;-0.862;2023-04-07T11:52:40;100782.84;;;21.51;37.57
72359;BME280;60317;48.880;-0.862;2023-04-07T11:55:15;100777.59;;;21.28;38.06
72359;BME280;60317;48.880;-0.862;2023-04-07T11:57:42;100786.06;;;20.91;38.22
72359;BME280;60317;48.880;-0.862;2023-04-07T12:00:11;100775.38;;;20.80;38.26
72359;BME280;60317;48.880;-0.862;2023-04-07T12:02:38;100779.72;;;20.71;38.44
72359;BME280;60317;48.880;-0.862;2023-04-07T12:05:06;100777.38;;;20.67;38.79
72359;BME280;60317;48.880;-0.862;2023-04-07T12:07:33;100776.78;;;20.63;38.69
72359;BME280;60317;48.880;-0.862;2023-04-07T12:10:17;100769.72;;;20.62;38.61
72359;BME280;60317;48.880;-0.862;2023-04-07T12:12:44;100769.25;;;20.89;38.66
72359;BME280;60317;48.880;-0.862;2023-04-07T12:15:10;100766.34;;;20.81;39.18
72359;BME280;60317;48.880;-0.862;2023-04-07T12:17:37;100772.19;;;20.86;39.14
72359;BME280;60317;48.880;-0.862;2023-04-07T12:20:06;100767.31;;;20.80;38.62
72359;BME280;60317;48.880;-0.862;2023-04-07T12:22:33;100761.88;;;20.70;38.54
72359;BME280;60317;48.880;-0.862;2023-04-07T12:24:59;100756.47;;;20.82;38.75
72359;BME280;60317;48.880;-0.862;2023-04-07T12:27:26;100769.91;;;20.70;39.57
72359;BME280;60317;48.880;-0.862;2023-04-07T12:30:07;100759.38;;;20.58;39.90
72359;BME280;60317;48.880;-0.862;2023-04-07T12:32:34;100774.50;;;20.47;40.12
72359;BME280;60317;48.880;-0.862;2023-04-07T12:35:00;100763.75;;;20.47;40.02
72359;BME280;60317;48.880;-0.862;2023-04-07T12:37:28;100759.22;;;20.48;39.78
72359;BME280;60317;48.880;-0.862;2023-04-07T12:39:54;100754.84;;;20.47;39.66
72359;BME280;60317;48.880;-0.862;2023-04-07T12:42:21;100757.66;;;20.45;39.66
72359;BME280;60317;48.880;-0.862;2023-04-07T12:44:47;100760.22;;;20.47;39.79
72359;BME280;60317;48.880;-0.862;2023-04-07T12:47:14;100742.06;;;20.39;39.54
72359;BME280;60317;48.880;-0.862;2023-04-07T12:49:41;100737.09;;;20.23;39.67
72359;BME280;60317;48.880;-0.862;2023-04-07T12:52:07;100735.97;;;20.37;39.38